Time;durP1;ratioP1;P1;durP2;ratioP2;P2;SDS_P1;SDS_P2;PMS_P1;PMS_P2;Temp;Humidity;BMP_temperature;BMP_pressure;BME280_temperature;BME280_humidity;BME280_pressure;Samples;Min_cycle;Max_cycle;Signal;HPM_P1;HPM_P2
2022/06/10 00:09:20;;;;;;;9.02;3.70;;;;;;;18.51;81.62;99942.13;18354675;31;20116;-66
2022/06/10 00:19:23;;;;;;;7.75;3.67;;;;;;;18.79;80.22;99946.22;18354773;32;20108;-67
2022/06/10 00:29:27;;;;;;;9.65;4.30;;;;;;;18.67;81.11;99966.94;18354220;32;20097;-67
2022/06/10 00:39:31;;;;;;;8.93;3.60;;;;;;;18.42;83.74;99965.38;18353852;32;20106;-66
2022/06/10 00:49:35;;;;;;;8.32;4.05;;;;;;;18.58;82.45;99973.50;18353285;32;20128;-67
2022/06/10 00:59:41;;;;;;;8.20;3.87;;;;;;;19.20;78.94;99977.91;18352875;32;20085;-66
2022/06/10 01:09:47;;;;;;;9.27;4.20;;;;;;;18.74;81.84;99995.78;18351866;31;20089;-67
2022/06/10 01:20:08;;;;;;;9.32;3.65;;;;;;;18.43;84.32;100000.56;18351884;32;20127;-67
2022/06/10 01:30:27;;;;;;;9.07;4.53;;;;;;;18.95;81.86;100013.34;18362011;32;20085;-67
2022/06/10 01:40:37;;;;;;;8.88;3.87;;;;;;;19.01;81.03;100037.88;18361389;32;20160;-67
2022/06/10 01:50:46;;;;;;;11.12;4.72;;;;;;;18.56;83.46;100036.16;18360940;32;20090;-67
2022/06/10 02:01:03;;;;;;;13.73;6.97;;;;;;;19.06;82.43;100047.31;18360537;32;20089;-66
2022/06/10 02:11:08;;;;;;;15.65;6.90;;;;;;;18.23;89.50;100031.31;18359935;31;20124;-66
2022/06/10 02:21:16;;;;;;;12.63;6.05;;;;;;;18.58;88.27;100071.31;18359698;32;20145;-65
2022/06/10 02:31:22;;;;;;;12.52;6.80;;;;;;;18.86;85.92;100062.22;18412390;31;20093;-66
2022/06/10 02:41:35;;;;;;;10.80;5.18;;;;;;;18.99;85.47;100065.22;18359406;32;20105;-66
2022/06/10 02:51:39;;;;;;;11.23;4.80;;;;;;;18.58;85.75;100062.50;18358673;32;20085;-65
2022/06/10 03:01:50;;;;;;;10.15;5.22;;;;;;;18.64;85.41;100056.97;18358463;32;20107;-66
2022/06/10 03:12:01;;;;;;;9.57;4.62;;;;;;;19.11;82.89;100071.81;18357736;31;20104;-66
2022/06/10 03:22:13;;;;;;;9.63;4.80;;;;;;;19.40;81.26;100088.19;18410518;31;20116;-66
2022/06/10 03:32:24;;;;;;;11.45;4.37;;;;;;;19.81;80.19;100095.16;18357140;32;20544;-66
2022/06/10 03:42:28;;;;;;;9.90;4.67;;;;;;;20.53;77.01;100107.78;18356624;32;20103;-66
2022/06/10 03:52:34;;;;;;;8.35;4.10;;;;;;;20.05;79.47;100120.62;18355607;32;20111;-65
2022/06/10 04:02:39;;;;;;;9.30;4.18;;;;;;;19.69;81.41;100125.75;18355492;32;20088;-65
2022/06/10 04:12:42;;;;;;;8.40;4.07;;;;;;;20.41;78.73;100146.34;18354721;31;20119;-66
2022/06/10 04:22:47;;;;;;;11.43;4.50;;;;;;;20.62;77.52;100163.03;18354427;32;20094;-66
2022/06/10 04:32:50;;;;;;;10.43;5.03;;;;;;;20.64;76.60;100170.91;18355185;32;20090;-66
2022/06/10 04:42:56;;;;;;;10.15;4.15;;;;;;;20.27;77.48;100184.09;18354697;32;20101;-66
2022/06/10 04:52:59;;;;;;;7.62;3.60;;;;;;;20.12;77.99;100187.47;18353174;32;20093;-66
2022/06/10 05:03:04;;;;;;;7.87;3.60;;;;;;;20.23;78.07;100207.22;18357851;32;20108;-65
2022/06/10 05:13:07;;;;;;;9.30;3.70;;;;;;;19.61;80.61;100202.00;18360523;31;20093;-66
2022/06/10 05:23:13;;;;;;;7.50;3.10;;;;;;;20.24;76.99;100195.69;18361714;32;20360;-66
2022/06/10 05:33:16;;;;;;;7.15;3.30;;;;;;;19.98;77.57;100207.50;18362781;32;20085;-66
2022/06/10 05:43:21;;;;;;;7.68;3.00;;;;;;;20.53;75.00;100224.44;18360797;32;20089;-65
2022/06/10 05:53:25;;;;;;;5.75;2.50;;;;;;;20.56;74.83;100236.72;18413632;31;20123;-66
2022/06/10 06:03:29;;;;;;;6.35;2.83;;;;;;;20.03;74.81;100241.72;18360393;32;20117;-66
2022/06/10 06:13:32;;;;;;;8.30;2.80;;;;;;;20.91;74.66;100258.06;18360754;32;20098;-66
2022/06/10 06:23:37;;;;;;;7.45;2.92;;;;;;;20.99;74.00;100266.53;18359717;32;20392;-66
2022/06/10 06:33:41;;;;;;;7.22;2.83;;;;;;;21.05;72.63;100275.97;18359355;32;20113;-66
2022/06/10 06:43:46;;;;;;;7.55;2.60;;;;;;;21.33;73.31;100286.12;18358309;32;20191;-66
2022/06/10 06:53:49;;;;;;;5.75;2.70;;;;;;;21.46;74.95;100290.81;18358339;32;20123;-66
2022/06/10 07:03:54;;;;;;;4.35;2.17;;;;;;;21.98;71.42;100287.34;18356752;32;20197;-67
2022/06/10 07:13:57;;;;;;;6.90;2.65;;;;;;;22.41;71.29;100291.34;18357361;32;20090;-67
2022/06/10 07:24:02;;;;;;;5.18;2.20;;;;;;;23.14;66.07;100298.03;18356300;32;20093;-68
2022/06/10 07:34:05;;;;;;;3.83;1.67;;;;;;;24.91;63.73;100286.66;18356764;32;20098;-68
2022/06/10 07:44:09;;;;;;;4.68;1.80;;;;;;;25.69;56.85;100294.97;18356614;32;20102;-68
2022/06/10 07:54:13;;;;;;;6.32;2.15;;;;;;;25.25;57.67;100308.50;18355750;32;20129;-68
2022/06/10 08:04:17;;;;;;;4.30;2.08;;;;;;;25.70;54.07;100299.34;18355362;32;20105;-68
2022/06/10 08:14:21;;;;;;;6.55;2.20;;;;;;;25.41;53.75;100304.81;18355002;32;20137;-68
2022/06/10 08:24:25;;;;;;;5.50;2.30;;;;;;;25.77;54.13;100303.31;18354134;32;20539;-68
2022/06/10 08:34:29;;;;;;;4.78;2.37;;;;;;;26.58;50.92;100303.16;18358310;32;20093;-68
2022/06/10 08:44:37;;;;;;;3.83;2.15;;;;;;;26.44;53.53;100315.69;18363480;32;20073;-68
2022/06/10 08:54:44;;;;;;;3.60;2.30;;;;;;;26.57;50.15;100321.03;18363193;32;20353;-65
2022/06/10 09:04:53;;;;;;;3.37;2.30;;;;;;;26.85;51.25;100328.91;18415163;31;20391;-65
2022/06/10 09:15:02;;;;;;;4.97;2.35;;;;;;;27.16;51.32;100324.03;18362051;32;20657;-66
2022/06/10 09:25:11;;;;;;;5.10;2.37;;;;;;;26.91;53.52;100327.66;18361482;32;20093;-65
2022/06/10 09:35:21;;;;;;;8.25;2.90;;;;;;;27.49;50.16;100333.19;18362401;32;20106;-66
2022/06/10 09:45:31;;;;;;;5.18;2.58;;;;;;;27.55;53.06;100332.75;18360701;32;20076;-66
2022/06/10 09:55:46;;;;;;;7.07;2.72;;;;;;;27.84;53.39;100324.31;18360347;32;20089;-66
2022/06/10 10:06:04;;;;;;;5.62;2.62;;;;;;;28.03;52.23;100328.28;18476362;32;20529;-66
2022/06/10 10:16:15;;;;;;;12.52;3.40;;;;;;;28.69;51.07;100331.28;18475643;32;20385;-65
2022/06/10 10:26:23;;;;;;;5.37;2.67;;;;;;;28.75;49.34;100328.13;18359522;32;20082;-66
2022/06/10 10:36:35;;;;;;;5.65;2.67;;;;;;;28.66;49.19;100332.37;18412138;31;20119;-65
2022/06/10 10:46:42;;;;;;;4.43;2.33;;;;;;;28.98;48.65;100325.41;18358641;32;20112;-66
2022/06/10 10:56:47;;;;;;;7.45;2.87;;;;;;;29.14;46.34;100325.88;18358529;31;20468;-67
2022/06/10 11:07:00;;;;;;;5.90;2.67;;;;;;;29.48;50.25;100319.56;18357802;32;20077;-68
2022/06/10 11:17:24;;;;;;;4.45;2.33;;;;;;;29.54;48.88;100326.25;18358344;32;20115;-65
2022/06/10 11:27:32;;;;;;;5.60;2.80;;;;;;;29.89;46.86;100311.66;18357028;32;20097;-66
2022/06/10 11:37:38;;;;;;;11.43;3.37;;;;;;;30.51;45.68;100295.53;18356358;32;20093;-66
2022/06/10 11:47:48;;;;;;;5.12;2.50;;;;;;;30.23;50.48;100295.28;18355963;32;20107;-66
2022/06/10 12:08:17;;;;;;;4.70;2.40;;;;;;;30.61;45.78;100274.03;18356161;32;19973;-66
2022/06/10 12:18:21;;;;;;;4.57;2.10;;;;;;;30.58;44.45;100264.37;18354878;32;20457;-65
2022/06/10 12:28:33;;;;;;;5.65;2.60;;;;;;;30.95;42.34;100246.75;18354376;32;20219;-65
2022/06/10 12:38:38;;;;;;;3.78;2.25;;;;;;;30.92;40.11;100248.88;18353974;32;20113;-65
2022/06/10 12:48:46;;;;;;;5.53;2.80;;;;;;;30.63;41.66;100237.03;18353643;32;20089;-68
2022/06/10 12:58:53;;;;;;;6.10;2.70;;;;;;;31.23;43.11;100232.59;18352921;31;20116;-66
2022/06/10 13:08:59;;;;;;;54.75;8.52;;;;;;;32.08;42.37;100221.09;18352658;31;20093;-66
2022/06/10 13:19:03;;;;;;;6.32;2.47;;;;;;;31.53;40.81;100234.28;18354455;32;20093;-67
2022/06/10 13:29:14;;;;;;;5.78;2.08;;;;;;;31.85;41.37;100226.84;18361930;32;20433;-69
2022/06/10 13:39:25;;;;;;;5.10;2.42;;;;;;;31.23;42.20;100217.28;18361538;32;20093;-69
2022/06/10 13:49:51;;;;;;;16.50;3.45;;;;;;;31.65;40.17;100212.56;18362267;32;20109;-69
2022/06/10 13:59:58;;;;;;;7.28;2.67;;;;;;;31.63;41.47;100204.59;18359282;32;20097;-66
2022/06/10 14:10:04;;;;;;;11.20;2.80;;;;;;;31.15;39.00;100204.50;18412828;31;20104;-66
2022/06/10 14:20:10;;;;;;;6.90;2.80;;;;;;;31.01;40.43;100203.09;18357600;32;20156;-65
2022/06/10 14:30:18;;;;;;;6.37;2.78;;;;;;;29.86;44.13;100188.16;18411507;31;20116;-66
2022/06/10 14:40:22;;;;;;;6.87;2.80;;;;;;;30.08;43.87;100180.94;18358800;32;20096;-65
2022/06/10 14:50:27;;;;;;;11.05;3.08;;;;;;;29.86;45.55;100201.59;18358585;32;20523;-65
2022/06/10 15:00:36;;;;;;;7.97;3.30;;;;;;;30.21;45.30;100208.44;18358117;32;20097;-69
2022/06/10 15:10:43;;;;;;;6.32;3.10;;;;;;;30.69;43.93;100220.37;18357916;31;20504;-68
2022/06/10 15:20:48;;;;;;;5.18;2.75;;;;;;;29.88;45.31;100230.06;18356883;32;20094;-67
2022/06/10 15:30:57;;;;;;;4.93;2.45;;;;;;;30.22;45.27;100237.06;18356569;32;20085;-68
2022/06/10 15:41:01;;;;;;;8.45;2.28;;;;;;;29.68;44.66;100271.31;18401825;31;20141;-65
2022/06/10 15:51:09;;;;;;;4.57;2.15;;;;;;;29.75;44.62;100292.16;18352670;32;20108;-65
2022/06/10 16:01:13;;;;;;;4.82;1.80;;;;;;;29.21;45.24;100267.97;18355803;32;20100;-65
2022/06/10 16:11:19;;;;;;;3.17;1.83;;;;;;;27.26;41.06;100311.66;18348629;31;211044;-65
2022/06/10 16:21:23;;;;;;;7.30;3.08;;;;;;;27.11;48.01;100316.31;18355370;32;20104;-66
2022/06/10 16:31:32;;;;;;;5.32;2.47;;;;;;;26.82;53.28;100323.75;18354822;32;20504;-65
2022/06/10 16:41:38;;;;;;;6.27;2.80;;;;;;;26.46;54.95;100318.25;18354104;31;20093;-66
2022/06/10 16:51:43;;;;;;;5.97;2.50;;;;;;;26.39;54.84;100317.84;18353838;32;20101;-66
2022/06/10 17:01:46;;;;;;;6.28;2.78;;;;;;;26.53;53.82;100319.53;18428968;31;20111;-67
2022/06/10 17:11:52;;;;;;;7.05;3.08;;;;;;;25.94;54.27;100341.44;18365151;31;20116;-67
2022/06/10 17:21:57;;;;;;;7.25;3.30;;;;;;;26.64;52.65;100345.53;18414596;31;20115;-66
2022/06/10 17:32:02;;;;;;;6.80;3.33;;;;;;;26.18;54.32;100339.75;18360760;32;20101;-67
2022/06/10 17:42:05;;;;;;;6.43;3.15;;;;;;;25.87;55.38;100339.16;18413364;31;20101;-67
2022/06/10 17:52:13;;;;;;;6.72;3.20;;;;;;;25.56;56.66;100333.22;18357760;32;20094;-66
2022/06/10 18:02:26;;;;;;;7.85;3.03;;;;;;;26.08;56.25;100311.06;18411713;31;20115;-67
2022/06/10 18:12:31;;;;;;;6.70;3.22;;;;;;;26.16;55.06;100328.28;18440044;31;20093;-67
2022/06/10 18:22:35;;;;;;;8.32;3.45;;;;;;;25.96;53.96;100344.84;18423306;32;20088;-67
2022/06/10 18:32:39;;;;;;;6.25;3.03;;;;;;;25.51;57.33;100354.03;18364469;32;20116;-66
2022/06/10 18:42:43;;;;;;;6.32;3.15;;;;;;;25.74;54.98;100371.22;18414259;32;20093;-67
2022/06/10 18:52:47;;;;;;;6.47;2.95;;;;;;;25.33;55.81;100394.34;18422469;32;20088;-67
2022/06/10 19:02:51;;;;;;;8.68;3.25;;;;;;;25.48;52.65;100415.66;18400343;32;20119;-67
2022/06/10 19:12:57;;;;;;;6.28;2.87;;;;;;;24.94;53.27;100431.50;18418070;31;20090;-66
2022/06/10 19:23:04;;;;;;;6.97;2.80;;;;;;;24.94;53.52;100446.63;18355340;32;20089;-67
2022/06/10 19:33:17;;;;;;;6.07;2.80;;;;;;;25.26;52.12;100486.53;18405062;31;20132;-67
2022/06/10 19:43:23;;;;;;;6.20;2.60;;;;;;;25.39;51.60;100524.00;18388442;32;20088;-67
2022/06/10 19:53:31;;;;;;;7.05;3.33;;;;;;;24.71;53.23;100520.97;18365333;32;20387;-67
2022/06/10 20:03:38;;;;;;;6.43;2.97;;;;;;;24.97;53.32;100526.56;18393610;32;20078;-67
2022/06/10 20:13:44;;;;;;;7.22;3.05;;;;;;;24.68;54.75;100550.50;18415506;32;20113;-67
2022/06/10 20:23:49;;;;;;;8.27;3.35;;;;;;;24.59;55.07;100548.38;18365370;32;20109;-68
2022/06/10 20:33:55;;;;;;;8.27;3.42;;;;;;;24.46;55.79;100573.09;18455421;31;20089;-67
2022/06/10 20:43:58;;;;;;;7.82;2.83;;;;;;;24.02;57.14;100576.50;18381418;32;20093;-67
2022/06/10 20:54:12;;;;;;;;;;;;;;;23.91;58.02;100572.63;18436778;31;20386;-67
2022/06/10 21:14:40;;;;;;;7.95;3.62;;;;;;;23.52;57.71;100565.84;18416524;32;20436;-68
2022/06/10 21:24:43;;;;;;;7.25;3.37;;;;;;;23.24;58.92;100577.97;18424091;32;20532;-67
2022/06/10 21:34:48;;;;;;;7.80;3.65;;;;;;;22.80;59.62;100585.50;18424192;32;20127;-67
2022/06/10 21:45:03;;;;;;;7.72;3.47;;;;;;;22.86;59.28;100579.00;18422083;32;20435;-67
2022/06/10 21:55:13;;;;;;;9.52;3.33;;;;;;;22.48;61.00;100564.03;18422701;32;20111;-67
2022/06/10 22:05:20;;;;;;;8.63;3.83;;;;;;;22.23;61.44;100553.72;18422851;32;20093;-67
2022/06/10 22:15:27;;;;;;;8.35;3.50;;;;;;;22.17;61.55;100557.53;18422471;32;20137;-67
2022/06/10 22:25:32;;;;;;;8.82;3.87;;;;;;;21.92;61.84;100556.06;18421432;32;20148;-67
2022/06/10 22:35:39;;;;;;;8.23;3.65;;;;;;;21.79;63.08;100568.19;18421212;32;20112;-67
2022/06/10 22:45:47;;;;;;;10.02;3.83;;;;;;;21.65;62.20;100561.72;18474356;31;20119;-67
2022/06/10 22:55:53;;;;;;;8.40;3.55;;;;;;;21.52;61.11;100557.88;18421060;32;20115;-67
2022/06/10 23:16:40;;;;;;;9.10;3.90;;;;;;;21.73;60.00;100559.59;18420294;32;20089;-67
2022/06/10 23:26:44;;;;;;;8.13;3.42;;;;;;;21.84;59.30;100571.50;18420008;32;20441;-67
2022/06/10 23:36:49;;;;;;;10.32;4.20;;;;;;;21.88;58.69;100568.63;18419852;32;20115;-67
2022/06/10 23:57:15;;;;;;;9.40;3.67;;;;;;;21.63;58.84;100547.62;18418719;32;20094;-67
